KSUX/SUX METAR and TAF weather

Enter ICAO airport designator
Station Type Date Time Source
KSUX METAR 2018/12/12 06:52 UTC NOAA

KSUX 120652Z AUTO 30004KT 7SM OVC009 M06/M07 A2979 RMK AO2 SLP103 T10561067


Station Type Date Time Source
KSUX Decoded METAR 2018/12/12 06:52 UTC NOAA

SIOUX GATEWAY AIRPORT, IA, United States (KSUX) 42-23N 96-23W 338M
Dec 12, 2018 - 01:52 AM EST / 2018.12.12 0652 UTC
Wind: from the WNW (300 degrees) at 5 MPH (4 KT):0
Visibility: 7 mile(s):0
Sky conditions: overcast
Temperature: 21.9 F (-5.6 C)
Windchill: 15 F (-9 C):1
Dew Point: 19.9 F (-6.7 C)
Relative Humidity: 91%
Pressure (altimeter): 29.79 in. Hg (1008 hPa)
ob: KSUX 120652Z AUTO 30004KT 7SM OVC009 M06/M07 A2979 RMK AO2 SLP103 T10561067
cycle: 7

Station Type Date Time Source
KSUX TAF 2018/12/12 08:45 UTC NOAA

TAF
AMD KSUX 120743Z 1208/1306 30004KT 5SM BR VCFG BKN009 OVC020
FM121200 29006KT 3SM BR BKN009
FM121600 15007KT P6SM FEW009 SCT200
FM130100 14007KT P6SM BKN035


Example: see airport list